Time;durP1;ratioP1;P1;durP2;ratioP2;P2;SDS_P1;SDS_P2;PMS_P1;PMS_P2;Temp;Humidity;BMP_temperature;BMP_pressure;BME280_temperature;BME280_humidity;BME280_pressure;Samples;Min_cycle;Max_cycle;Signal;HPM_P1;HPM_P2
2023/05/22 00:01:31;;;;;;;25.25;16.90;;;;;;;15.12;100.00;101619.72;6252753;22;20016;-77
2023/05/22 00:03:58;;;;;;;26.38;16.58;;;;;;;15.12;100.00;101611.69;6252021;22;20481;-77
2023/05/22 00:06:26;;;;;;;28.55;18.05;;;;;;;15.10;100.00;101608.69;6250280;22;20334;-76
2023/05/22 00:08:52;;;;;;;25.65;17.58;;;;;;;15.05;100.00;101604.69;6250036;22;20114;-77
2023/05/22 00:11:19;;;;;;;27.42;18.23;;;;;;;15.05;100.00;101609.28;6251405;22;20551;-76
2023/05/22 00:13:46;;;;;;;28.17;17.17;;;;;;;15.03;100.00;101607.06;6250241;22;20477;-76
2023/05/22 00:16:13;;;;;;;28.45;17.38;;;;;;;15.02;100.00;101600.97;6251958;22;20021;-77
2023/05/22 00:18:42;;;;;;;26.23;18.13;;;;;;;15.02;100.00;101594.84;6251720;22;20443;-77
2023/05/22 00:21:09;;;;;;;24.42;17.50;;;;;;;15.04;100.00;101594.41;6251827;22;20017;-77
2023/05/22 00:23:36;;;;;;;25.65;18.35;;;;;;;15.04;100.00;101597.09;6250299;22;20091;-76
2023/05/22 00:26:03;;;;;;;36.72;18.60;;;;;;;15.02;100.00;101586.81;6251344;22;20426;-76
2023/05/22 00:28:29;;;;;;;29.27;18.23;;;;;;;15.00;100.00;101579.22;6250615;22;20019;-76
2023/05/22 00:30:56;;;;;;;29.73;17.63;;;;;;;14.97;100.00;101574.75;6248524;22;20020;-76
2023/05/22 00:33:22;;;;;;;29.55;18.67;;;;;;;14.95;100.00;101576.38;6250035;22;20074;-76
2023/05/22 00:35:50;;;;;;;27.83;19.02;;;;;;;14.93;100.00;101576.84;6223234;22;20021;-76
2023/05/22 00:38:31;;;;;;;30.35;18.58;;;;;;;14.92;100.00;101574.59;6250118;22;20465;-76
2023/05/22 00:41:03;;;;;;;24.75;18.63;;;;;;;14.89;100.00;101576.25;6273473;22;20036;-76
2023/05/22 00:43:30;;;;;;;;;;;;;;;14.90;100.00;101576.97;6251105;22;20024;-76
2023/05/22 00:45:56;;;;;;;26.75;18.40;;;;;;;14.87;100.00;101567.16;6248615;22;19944;-76
2023/05/22 00:48:25;;;;;;;31.33;19.27;;;;;;;14.86;100.00;101566.41;6247973;22;20465;-76
2023/05/22 00:50:54;;;;;;;31.35;19.75;;;;;;;14.84;100.00;101565.38;6273998;22;20020;-78
2023/05/22 00:53:23;;;;;;;33.60;20.58;;;;;;;14.83;100.00;101564.63;6250020;22;20067;-78
2023/05/22 00:55:51;;;;;;;26.80;19.92;;;;;;;14.83;100.00;101561.19;6248329;22;20497;-78
2023/05/22 00:58:18;;;;;;;29.80;20.65;;;;;;;14.84;100.00;101555.38;6273658;22;20031;-78
2023/05/22 01:00:48;;;;;;;28.92;20.92;;;;;;;14.84;100.00;101562.69;6248574;22;20017;-78
2023/05/22 01:03:16;;;;;;;28.58;20.27;;;;;;;14.84;100.00;101552.72;6247896;22;20020;-78
2023/05/22 01:05:44;;;;;;;28.10;20.85;;;;;;;14.83;100.00;101553.16;6250157;22;20016;-78
2023/05/22 01:08:10;;;;;;;29.67;21.30;;;;;;;14.82;100.00;101547.06;6249448;22;20017;-78
2023/05/22 01:10:38;;;;;;;27.70;20.60;;;;;;;14.82;100.00;101543.63;6223083;22;20016;-77
2023/05/22 01:13:59;;;;;;;32.83;20.27;;;;;;;14.81;100.00;101537.53;6250198;22;20469;-78
2023/05/22 01:16:34;;;;;;;31.23;20.52;;;;;;;14.82;100.00;101544.38;6131685;23;20051;-77
2023/05/22 01:19:24;;;;;;;30.02;21.00;;;;;;;14.81;100.00;101537.53;6132360;23;20506;-77
2023/05/22 01:22:22;;;;;;;29.33;20.50;;;;;;;14.83;100.00;101527.09;6156838;23;20447;-78
2023/05/22 01:25:33;;;;;;;31.17;19.98;;;;;;;14.83;100.00;101532.47;6156330;23;20093;-78
2023/05/22 01:28:18;;;;;;;33.70;21.30;;;;;;;14.84;100.00;101535.88;6153640;23;20032;-78
2023/05/22 01:31:06;;;;;;;30.90;21.15;;;;;;;14.84;100.00;101535.88;6131478;23;20096;-78
2023/05/22 01:33:41;;;;;;;33.28;21.30;;;;;;;14.82;100.00;101530.97;6157146;23;20018;-78
2023/05/22 01:36:09;;;;;;;30.33;20.35;;;;;;;14.80;100.00;101528.00;6131809;23;20428;-78
2023/05/22 01:38:36;;;;;;;34.33;21.42;;;;;;;14.80;100.00;101536.03;6130737;23;20032;-77
2023/05/22 01:41:03;;;;;;;32.47;22.27;;;;;;;14.79;100.00;101531.91;6156704;23;20045;-77
2023/05/22 01:43:30;;;;;;;30.50;21.90;;;;;;;14.78;100.00;101527.72;6156837;23;20070;-76
2023/05/22 01:45:58;;;;;;;30.42;21.55;;;;;;;14.77;100.00;101528.91;6156432;23;20097;-78
2023/05/22 01:48:25;;;;;;;33.80;21.30;;;;;;;14.77;100.00;101525.50;6156441;23;20093;-78
2023/05/22 01:50:53;;;;;;;31.40;21.17;;;;;;;14.75;100.00;101525.19;6222097;22;20021;-78
2023/05/22 01:53:30;;;;;;;37.20;21.05;;;;;;;14.74;100.00;101519.09;6249165;22;20017;-77
2023/05/22 01:56:05;;;;;;;34.53;21.35;;;;;;;14.73;100.00;101514.19;6249336;22;20024;-76
2023/05/22 01:58:48;;;;;;;36.72;19.88;;;;;;;14.71;100.00;101508.53;6222893;22;20497;-76
2023/05/22 02:01:18;;;;;;;33.53;21.02;;;;;;;14.67;100.00;101508.69;6222718;22;20056;-76
2023/05/22 02:03:47;;;;;;;28.63;21.23;;;;;;;14.64;100.00;101496.19;6247848;22;20027;-76
2023/05/22 02:06:15;;;;;;;31.50;20.38;;;;;;;14.63;100.00;101505.41;6273388;22;20067;-77
2023/05/22 02:08:42;;;;;;;34.15;20.70;;;;;;;14.60;100.00;101507.03;6248240;22;20016;-76
2023/05/22 02:11:12;;;;;;;28.77;19.92;;;;;;;14.56;100.00;101501.09;6273217;22;20025;-76
2023/05/22 02:13:40;;;;;;;32.67;20.43;;;;;;;14.53;100.00;101498.56;6248322;22;20455;-76
2023/05/22 02:16:07;;;;;;;25.83;20.88;;;;;;;14.50;100.00;101500.19;6248002;22;20067;-76
2023/05/22 02:18:33;;;;;;;44.00;20.25;;;;;;;14.48;100.00;101491.88;6273847;22;20036;-76
2023/05/22 02:21:02;;;;;;;30.83;21.05;;;;;;;14.48;100.00;101496.47;6249558;22;20480;-76
2023/05/22 02:23:30;;;;;;;26.50;19.50;;;;;;;14.47;100.00;101503.78;6250269;22;20481;-76
2023/05/22 02:25:57;;;;;;;30.35;21.60;;;;;;;14.45;100.00;101495.44;6249617;22;20048;-76
2023/05/22 02:28:24;;;;;;;27.42;20.10;;;;;;;14.45;100.00;101494.69;6248012;22;20967;-76
2023/05/22 02:30:51;;;;;;;35.30;21.77;;;;;;;14.43;100.00;101495.13;6247939;22;20450;-75
2023/05/22 02:33:18;;;;;;;31.45;20.80;;;;;;;14.42;100.00;101490.22;6249300;22;20358;-75
2023/05/22 02:35:44;;;;;;;24.90;19.77;;;;;;;14.41;100.00;101486.81;6247122;22;20023;-76
2023/05/22 02:38:11;;;;;;;26.02;19.58;;;;;;;14.39;100.00;101485.75;6247607;22;20064;-76
2023/05/22 02:40:38;;;;;;;29.02;21.55;;;;;;;14.35;100.00;101491.28;6247649;22;20462;-76
2023/05/22 02:43:06;;;;;;;30.98;21.08;;;;;;;14.34;100.00;101485.16;6247847;22;20016;-76
2023/05/22 02:45:32;;;;;;;28.58;20.40;;;;;;;14.29;100.00;101495.72;6248102;22;20017;-76
2023/05/22 02:48:02;;;;;;;28.77;20.40;;;;;;;14.29;100.00;101485.75;6247562;22;20025;-77
2023/05/22 02:50:28;;;;;;;31.48;20.48;;;;;;;14.29;100.00;101485.75;6246586;22;20051;-76
2023/05/22 02:52:55;;;;;;;33.83;21.48;;;;;;;14.28;100.00;101489.63;6222375;22;20553;-76
2023/05/22 02:55:21;;;;;;;28.10;21.38;;;;;;;14.28;100.00;101488.88;6247444;22;20051;-76
2023/05/22 02:57:48;;;;;;;30.00;20.10;;;;;;;14.27;100.00;101482.03;6247398;22;20029;-76
2023/05/22 03:00:15;;;;;;;30.27;21.13;;;;;;;14.26;100.00;101477.88;6247725;22;20031;-76
2023/05/22 03:02:42;;;;;;;29.85;20.98;;;;;;;14.26;100.00;101478.63;6247713;22;20071;-76
2023/05/22 03:05:09;;;;;;;28.88;19.67;;;;;;;14.25;100.00;101482.47;6246988;22;20099;-75
2023/05/22 03:07:36;;;;;;;35.78;22.35;;;;;;;14.26;100.00;101472.50;6222399;22;20096;-76
2023/05/22 03:10:03;;;;;;;27.38;19.98;;;;;;;14.23;100.00;101468.06;6248192;22;20478;-76
2023/05/22 03:12:29;;;;;;;34.47;22.13;;;;;;;14.22;100.00;101471.91;6249634;22;20771;-76
2023/05/22 03:14:57;;;;;;;37.03;22.52;;;;;;;14.21;100.00;101473.84;6247706;22;20024;-76
2023/05/22 03:17:23;;;;;;;32.50;22.35;;;;;;;14.23;100.00;101466.13;6247707;22;20025;-76
2023/05/22 03:19:50;;;;;;;41.45;22.40;;;;;;;14.23;100.00;101471.47;6246850;22;20024;-76
2023/05/22 03:22:17;;;;;;;58.97;22.10;;;;;;;14.21;100.00;101465.06;6247458;22;20068;-76
2023/05/22 03:24:44;;;;;;;60.30;21.15;;;;;;;14.18;100.00;101476.69;6247032;22;20013;-76
2023/05/22 03:27:14;;;;;;;67.93;22.13;;;;;;;14.13;100.00;101469.97;6247847;22;20031;-76
2023/05/22 03:29:41;;;;;;;31.58;21.08;;;;;;;14.14;100.00;101471.47;6249474;22;20015;-76
2023/05/22 03:32:08;;;;;;;74.35;21.35;;;;;;;14.11;100.00;101472.34;6248969;22;20013;-76
2023/05/22 03:34:35;;;;;;;54.92;21.50;;;;;;;14.09;100.00;101468.63;6247037;22;20017;-76
2023/05/22 03:37:04;;;;;;;52.28;21.98;;;;;;;14.05;100.00;101470.72;6247610;22;20124;-76
2023/05/22 03:39:31;;;;;;;37.78;21.10;;;;;;;14.04;100.00;101483.34;6247588;22;20083;-76
2023/05/22 03:42:09;;;;;;;29.45;20.83;;;;;;;14.06;100.00;101470.28;6247024;22;20387;-76
2023/05/22 03:44:36;;;;;;;52.28;20.67;;;;;;;14.03;100.00;101468.47;6247306;22;20016;-76
2023/05/22 03:47:02;;;;;;;38.88;21.00;;;;;;;14.02;100.00;101477.69;6247321;22;20493;-76
2023/05/22 03:49:30;;;;;;;30.98;22.25;;;;;;;14.03;100.00;101481.88;6246316;22;20040;-76
2023/05/22 03:51:56;;;;;;;57.08;22.25;;;;;;;14.05;100.00;101482.16;6248900;22;20421;-76
2023/05/22 03:54:22;;;;;;;34.75;21.90;;;;;;;14.07;100.00;101485.13;6248626;22;20045;-76
2023/05/22 03:56:50;;;;;;;31.10;21.20;;;;;;;14.09;100.00;101477.41;6246688;22;20025;-76
2023/05/22 03:59:18;;;;;;;67.85;21.65;;;;;;;14.08;100.00;101472.50;6222315;22;20041;-76
2023/05/22 04:01:45;;;;;;;35.92;21.25;;;;;;;14.09;100.00;101472.06;6247154;22;20091;-76
2023/05/22 04:04:12;;;;;;;61.47;20.27;;;;;;;14.06;100.00;101472.94;6247593;22;20024;-76
2023/05/22 04:06:41;;;;;;;70.05;21.65;;;;;;;14.04;100.00;101475.31;6250326;22;20047;-76
2023/05/22 04:09:12;;;;;;;41.72;20.90;;;;;;;14.06;100.00;101467.59;6250438;22;20120;-76
2023/05/22 04:11:38;;;;;;;24.52;20.05;;;;;;;14.06;100.00;101475.63;6248658;22;20044;-76
2023/05/22 04:14:05;;;;;;;41.55;20.88;;;;;;;14.06;100.00;101472.94;6250440;22;20040;-76
2023/05/22 04:16:32;;;;;;;31.95;19.65;;;;;;;14.08;100.00;101473.25;6250054;22;20028;-76
2023/05/22 04:19:02;;;;;;;32.65;20.55;;;;;;;14.08;100.00;101467.88;6250233;22;20063;-77
2023/05/22 04:21:33;;;;;;;31.20;19.33;;;;;;;14.09;100.00;101469.38;6248290;22;20450;-76
2023/05/22 04:24:00;;;;;;;27.50;21.17;;;;;;;14.09;100.00;101474.72;6223381;22;20016;-76
2023/05/22 04:26:30;;;;;;;25.48;19.70;;;;;;;14.11;100.00;101476.97;6248383;22;20073;-76
2023/05/22 04:28:57;;;;;;;24.13;20.05;;;;;;;14.15;100.00;101486.34;6249198;22;20023;-76
2023/05/22 04:31:24;;;;;;;27.80;20.17;;;;;;;14.19;100.00;101494.22;6248915;22;20067;-76
2023/05/22 04:33:50;;;;;;;26.75;19.50;;;;;;;14.18;100.00;101509.56;6250910;22;20016;-76
2023/05/22 04:36:21;;;;;;;44.92;19.60;;;;;;;14.15;100.00;101513.13;6248993;22;20076;-76
2023/05/22 04:38:49;;;;;;;41.70;20.05;;;;;;;14.15;100.00;101515.06;6251182;22;20019;-77
2023/05/22 04:41:16;;;;;;;25.88;19.75;;;;;;;14.15;100.00;101512.38;6248896;22;20032;-78
2023/05/22 04:43:47;;;;;;;26.80;19.63;;;;;;;14.20;100.00;101522.50;6249116;22;20043;-77
2023/05/22 04:46:14;;;;;;;26.35;20.92;;;;;;;14.20;100.00;101525.19;6250344;22;20016;-76
2023/05/22 04:48:41;;;;;;;24.77;20.48;;;;;;;14.20;100.00;101527.84;6251771;22;20013;-77
2023/05/22 04:51:08;;;;;;;24.00;20.55;;;;;;;14.21;100.00;101534.69;6250885;22;20012;-76
2023/05/22 04:53:37;;;;;;;33.38;21.98;;;;;;;14.22;100.00;101528.16;6249269;22;20048;-76
2023/05/22 04:56:05;;;;;;;29.40;21.05;;;;;;;14.24;100.00;101533.81;6249108;22;20020;-76
2023/05/22 04:58:32;;;;;;;29.48;21.05;;;;;;;14.27;100.00;101536.34;6275161;22;20025;-76
2023/05/22 05:00:58;;;;;;;34.10;22.35;;;;;;;14.26;100.00;101542.88;6248844;22;20050;-77
2023/05/22 05:03:26;;;;;;;28.15;21.35;;;;;;;14.26;100.00;101537.53;6250524;22;20059;-76
2023/05/22 05:05:53;;;;;;;26.65;22.20;;;;;;;14.28;100.00;101542.44;6275069;22;20171;-76
2023/05/22 05:08:20;;;;;;;38.22;21.83;;;;;;;14.30;100.00;101538.13;6249001;22;20446;-76
2023/05/22 05:10:47;;;;;;;31.35;22.48;;;;;;;14.33;100.00;101539.19;6249145;22;20020;-77
2023/05/22 05:13:13;;;;;;;34.80;22.92;;;;;;;14.39;100.00;101542.75;6250587;22;20019;-76
2023/05/22 05:15:41;;;;;;;30.83;22.45;;;;;;;14.49;100.00;101540.81;6248804;22;20021;-76
2023/05/22 05:18:07;;;;;;;36.58;22.63;;;;;;;14.57;100.00;101536.66;6248966;22;20447;-76
2023/05/22 05:20:34;;;;;;;33.08;22.38;;;;;;;14.83;100.00;101529.03;6250955;22;20028;-76
2023/05/22 05:23:01;;;;;;;33.40;22.83;;;;;;;15.27;100.00;101526.69;6249133;22;20028;-76
2023/05/22 05:25:27;;;;;;;36.45;23.20;;;;;;;15.54;100.00;101529.28;6249130;22;20024;-76
2023/05/22 05:27:55;;;;;;;34.63;22.08;;;;;;;15.79;100.00;101538.13;6249047;22;20087;-76
2023/05/22 05:30:22;;;;;;;28.17;21.38;;;;;;;15.79;100.00;101536.19;6248310;22;20025;-76
2023/05/22 05:33:07;;;;;;;36.22;22.73;;;;;;;16.49;100.00;101525.09;6249352;22;20104;-78
2023/05/22 05:35:54;;;;;;;29.40;21.70;;;;;;;17.26;96.78;101528.34;6249208;22;20043;-76
2023/05/22 05:38:23;;;;;;;30.02;21.95;;;;;;;17.74;92.22;101530.03;6248621;22;20024;-77
2023/05/22 05:40:50;;;;;;;39.08;22.45;;;;;;;18.20;89.90;101522.75;6250943;22;20040;-76
2023/05/22 05:43:19;;;;;;;36.75;22.15;;;;;;;18.27;87.84;101527.72;6248500;22;20028;-79
2023/05/22 05:45:48;;;;;;;42.20;21.13;;;;;;;18.43;86.96;101531.81;6248882;22;20074;-77
2023/05/22 05:48:15;;;;;;;33.97;21.40;;;;;;;18.83;84.71;101525.59;6248813;22;20020;-77
2023/05/22 05:50:44;;;;;;;44.75;21.80;;;;;;;19.07;83.60;101529.94;6248960;22;20071;-77
2023/05/22 05:53:11;;;;;;;51.22;22.40;;;;;;;19.32;82.74;101521.03;6248486;22;20414;-78
2023/05/22 05:55:41;;;;;;;31.02;20.13;;;;;;;19.47;81.89;101524.34;6224273;22;20020;-77
2023/05/22 05:58:07;;;;;;;29.45;20.08;;;;;;;19.63;80.94;101533.75;6248242;22;20017;-77
2023/05/22 06:00:55;;;;;;;24.80;19.20;;;;;;;19.67;79.09;101528.88;6250541;22;20124;-78
2023/05/22 06:03:24;;;;;;;29.00;19.85;;;;;;;19.71;79.52;101521.28;6248641;22;20051;-79
2023/05/22 06:06:06;;;;;;;30.90;19.80;;;;;;;19.67;79.56;101517.31;6248577;22;20021;-78
2023/05/22 06:08:52;;;;;;;29.92;19.55;;;;;;;19.58;79.97;101527.13;6250927;22;20029;-77
2023/05/22 06:11:25;;;;;;;25.98;18.92;;;;;;;19.67;80.61;101530.84;6248620;22;20020;-78
2023/05/22 06:13:53;;;;;;;34.40;20.40;;;;;;;19.52;81.82;101529.06;6248381;22;20481;-78
2023/05/22 06:16:19;;;;;;;22.60;18.30;;;;;;;19.67;80.36;101520.78;6248791;22;20025;-79
2023/05/22 06:18:47;;;;;;;22.13;17.95;;;;;;;19.75;80.42;101529.16;6274776;22;20040;-79
2023/05/22 06:21:14;;;;;;;24.15;18.52;;;;;;;19.83;80.77;101522.06;6248568;22;20442;-77
2023/05/22 06:23:41;;;;;;;24.92;19.17;;;;;;;19.93;81.39;101524.09;6248951;22;20104;-79
2023/05/22 06:26:07;;;;;;;22.58;18.67;;;;;;;19.95;81.23;101526.31;6248277;22;20021;-78
2023/05/22 06:28:37;;;;;;;25.95;18.65;;;;;;;19.97;81.04;101535.41;6247937;22;20099;-77
2023/05/22 06:31:04;;;;;;;22.45;18.27;;;;;;;20.09;80.52;101533.47;6249083;22;20155;-77
2023/05/22 06:33:33;;;;;;;25.75;18.65;;;;;;;20.24;80.40;101542.13;6248813;22;20473;-76
2023/05/22 06:36:00;;;;;;;23.58;17.48;;;;;;;20.35;79.55;101549.53;6248852;22;20024;-77
2023/05/22 06:38:27;;;;;;;25.25;18.10;;;;;;;20.39;79.96;101543.91;6248349;22;20464;-76
2023/05/22 06:40:53;;;;;;;20.48;17.65;;;;;;;20.49;79.40;101553.25;6248874;22;20075;-76
2023/05/22 06:43:23;;;;;;;23.00;18.05;;;;;;;20.49;78.56;101553.25;6247645;22;20079;-76
2023/05/22 06:45:57;;;;;;;27.90;17.90;;;;;;;20.39;79.18;101544.66;6248934;22;20059;-76
2023/05/22 06:48:47;;;;;;;20.30;17.30;;;;;;;20.50;78.52;101562.84;6248586;22;20020;-76
2023/05/22 06:51:20;;;;;;;21.17;17.67;;;;;;;20.66;78.53;101564.13;6248652;22;20012;-76
2023/05/22 06:53:50;;;;;;;21.42;16.83;;;;;;;20.63;77.87;101553.06;6248550;22;20449;-76
2023/05/22 06:56:23;;;;;;;22.65;16.50;;;;;;;20.74;78.17;101555.03;6247980;22;20434;-76
2023/05/22 06:59:00;;;;;;;23.80;16.98;;;;;;;20.87;76.90;101559.94;6248950;22;20024;-76
2023/05/22 07:01:45;;;;;;;21.38;17.42;;;;;;;20.87;77.22;101562.66;6248822;22;20024;-74
2023/05/22 07:04:16;;;;;;;20.13;16.25;;;;;;;21.03;77.29;101563.91;6273971;22;20020;-75
2023/05/22 07:06:52;;;;;;;19.25;17.05;;;;;;;21.14;76.56;101561.19;6248928;22;20469;-75
2023/05/22 07:09:19;;;;;;;20.02;17.08;;;;;;;21.19;77.38;101560.47;6273871;22;20088;-75
2023/05/22 07:11:47;;;;;;;20.13;15.98;;;;;;;21.32;75.74;101565.38;6248135;22;20021;-74
2023/05/22 07:14:15;;;;;;;22.08;16.92;;;;;;;21.42;75.32;101570.03;6248095;22;20075;-74
2023/05/22 07:16:42;;;;;;;24.25;15.98;;;;;;;21.54;75.22;101566.09;6248601;22;20021;-75
2023/05/22 07:19:10;;;;;;;21.52;17.48;;;;;;;21.59;75.59;101573.44;6248272;22;20028;-75
2023/05/22 07:21:38;;;;;;;21.35;17.33;;;;;;;21.62;75.16;101566.28;6248407;22;20020;-75
2023/05/22 07:24:08;;;;;;;18.85;16.13;;;;;;;21.90;75.65;101563.50;6249660;22;20013;-75
2023/05/22 07:26:44;;;;;;;19.60;16.67;;;;;;;22.07;75.33;101569.63;6248165;22;20016;-75
2023/05/22 07:29:14;;;;;;;17.95;16.15;;;;;;;22.15;73.80;101570.56;6248178;22;20023;-75
2023/05/22 07:31:44;;;;;;;17.08;15.32;;;;;;;22.37;72.79;101571.72;6273871;22;20729;-75
2023/05/22 07:34:11;;;;;;;20.17;15.52;;;;;;;22.46;70.37;101568.69;6247541;22;20021;-75
2023/05/22 07:36:38;;;;;;;23.58;14.95;;;;;;;22.55;70.73;101565.66;6248584;22;20028;-76
2023/05/22 07:39:08;;;;;;;54.33;19.77;;;;;;;22.66;70.29;101565.59;6251246;22;20017;-75
2023/05/22 07:41:37;;;;;;;25.23;16.50;;;;;;;22.82;69.28;101569.44;6249296;22;20075;-76
2023/05/22 07:44:06;;;;;;;30.25;15.13;;;;;;;22.82;68.49;101567.47;6249395;22;20027;-75
2023/05/22 07:46:36;;;;;;;18.58;15.32;;;;;;;22.94;69.51;101562.69;6249477;22;20339;-75
2023/05/22 07:49:18;;;;;;;20.55;15.23;;;;;;;22.94;69.28;101560.72;6249449;22;20017;-76
2023/05/22 07:51:45;;;;;;;16.70;15.05;;;;;;;23.21;67.47;101569.84;6249752;22;20045;-75
2023/05/22 07:54:14;;;;;;;21.60;16.38;;;;;;;23.36;67.15;101572.19;6248537;22;20074;-77
2023/05/22 07:56:44;;;;;;;20.58;16.02;;;;;;;23.40;66.78;101574.63;6249264;22;20029;-76
2023/05/22 07:59:11;;;;;;;28.15;17.90;;;;;;;23.60;66.70;101576.91;6274444;22;20017;-76
2023/05/22 08:01:40;;;;;;;18.42;15.90;;;;;;;23.84;65.63;101573.44;6251257;22;20020;-76
2023/05/22 08:04:07;;;;;;;17.65;15.77;;;;;;;23.91;64.41;101575.59;6250914;22;20392;-76
2023/05/22 08:06:34;;;;;;;16.27;14.70;;;;;;;24.02;65.61;101571.97;6251187;22;20017;-76
2023/05/22 08:09:01;;;;;;;17.75;15.85;;;;;;;24.16;64.99;101574.25;6249147;22;20016;-77
2023/05/22 08:11:28;;;;;;;17.27;15.32;;;;;;;24.17;63.38;101581.16;6250865;22;20051;-78
2023/05/22 08:13:55;;;;;;;18.40;16.33;;;;;;;24.18;63.21;101581.91;6251251;22;20470;-78
2023/05/22 08:16:22;;;;;;;17.40;15.75;;;;;;;24.33;62.67;101584.22;6249101;22;20447;-76
2023/05/22 08:18:49;;;;;;;16.80;15.10;;;;;;;24.43;62.58;101579.84;6251105;22;20040;-77
2023/05/22 08:21:15;;;;;;;17.10;15.40;;;;;;;24.57;61.95;101586.84;6250914;22;20095;-80
2023/05/22 08:23:42;;;;;;;17.73;15.65;;;;;;;24.59;63.20;101584.34;6248908;22;20016;-78
2023/05/22 08:26:09;;;;;;;17.85;15.43;;;;;;;24.75;61.22;101579.91;6250753;22;20017;-81
2023/05/22 08:28:36;;;;;;;19.83;15.38;;;;;;;25.02;60.68;101586.16;6251353;22;20040;-82
2023/05/22 08:31:02;;;;;;;17.85;15.65;;;;;;;25.05;60.84;101579.69;6251398;22;20446;-79
2023/05/22 08:33:29;;;;;;;18.65;16.08;;;;;;;25.17;60.07;101581.69;6250970;22;20024;-78
2023/05/22 08:35:55;;;;;;;18.65;15.77;;;;;;;25.18;59.97;101580.44;6251437;22;20059;-78
2023/05/22 08:38:22;;;;;;;17.63;15.00;;;;;;;25.30;59.24;101582.97;6250100;22;20046;-77
2023/05/22 08:40:49;;;;;;;19.77;17.17;;;;;;;25.23;59.86;101584.31;6251107;22;20031;-78
2023/05/22 08:43:18;;;;;;;17.98;16.23;;;;;;;25.30;59.26;101564.63;6250820;22;20013;-78
2023/05/22 08:45:47;;;;;;;17.75;15.88;;;;;;;25.55;59.77;101574.06;6251231;22;20024;-80
2023/05/22 08:48:16;;;;;;;18.48;16.73;;;;;;;25.77;59.24;101578.38;6250356;22;20059;-77
2023/05/22 08:50:45;;;;;;;18.02;15.57;;;;;;;25.64;58.73;101578.38;6249409;22;20017;-77
2023/05/22 08:53:14;;;;;;;17.20;15.50;;;;;;;25.55;57.51;101573.34;6249951;22;20430;-77
2023/05/22 08:55:41;;;;;;;16.38;14.88;;;;;;;25.68;58.98;101570.63;6250395;22;20021;-77
2023/05/22 08:58:10;;;;;;;17.40;15.73;;;;;;;25.82;59.09;101576.78;6250377;22;20023;-79
2023/05/22 09:00:36;;;;;;;15.70;14.30;;;;;;;26.05;58.68;101569.59;6251115;22;20024;-77
2023/05/22 09:03:05;;;;;;;16.20;14.57;;;;;;;25.89;57.76;101570.72;6251266;22;20078;-78
2023/05/22 09:05:32;;;;;;;19.90;15.30;;;;;;;25.80;59.18;101569.16;6251087;22;20021;-78
2023/05/22 09:08:00;;;;;;;16.58;14.98;;;;;;;25.98;57.97;101569.53;6250464;22;20071;-78
2023/05/22 09:10:45;;;;;;;15.15;13.63;;;;;;;26.35;57.33;101563.06;6251218;22;20040;-77
2023/05/22 09:13:23;;;;;;;14.95;13.55;;;;;;;26.11;55.94;101570.22;6249934;22;20079;-77
2023/05/22 09:15:49;;;;;;;16.50;13.10;;;;;;;25.80;55.33;101571.13;6250902;22;20332;-76
2023/05/22 09:18:16;;;;;;;17.48;14.30;;;;;;;25.80;56.22;101568.41;6250473;22;20047;-77
2023/05/22 09:20:42;;;;;;;18.27;15.10;;;;;;;25.70;55.75;101570.81;6250878;22;20467;-77
2023/05/22 09:23:16;;;;;;;16.88;15.18;;;;;;;26.06;55.14;101556.69;6248086;22;20091;-78
2023/05/22 09:25:43;;;;;;;17.38;15.07;;;;;;;26.00;56.11;101551.38;6251108;22;20020;-77
2023/05/22 09:28:11;;;;;;;16.55;14.98;;;;;;;26.08;56.80;101554.19;6250273;22;20018;-79
2023/05/22 09:30:38;;;;;;;17.98;14.52;;;;;;;26.19;55.68;101559.41;6250438;22;20044;-79
2023/05/22 09:33:07;;;;;;;16.63;14.80;;;;;;;26.32;53.23;101553.94;6249691;22;20018;-82
2023/05/22 09:35:36;;;;;;;15.07;13.18;;;;;;;26.63;52.63;101556.94;6249894;22;20020;-79
2023/05/22 09:38:02;;;;;;;15.38;13.90;;;;;;;26.70;52.41;101554.28;6250766;22;20012;-79
2023/05/22 09:40:33;;;;;;;18.65;15.95;;;;;;;26.72;52.70;101554.47;6250519;22;20808;-79
2023/05/22 09:43:00;;;;;;;19.98;15.13;;;;;;;26.98;53.50;101547.41;6251224;22;20490;-80
2023/05/22 09:45:27;;;;;;;16.42;14.90;;;;;;;27.20;52.36;101533.88;6250163;22;20052;-80
2023/05/22 09:47:54;;;;;;;15.07;13.57;;;;;;;27.38;50.98;101545.13;6251234;22;20439;-79
2023/05/22 09:50:20;;;;;;;15.20;13.70;;;;;;;27.49;50.35;101544.81;6250227;22;20342;-80
2023/05/22 09:52:49;;;;;;;16.90;15.30;;;;;;;27.45;50.12;101545.16;6249228;22;20012;-80
2023/05/22 09:55:20;;;;;;;25.92;15.77;;;;;;;27.41;50.77;101547.50;6250635;22;20020;-80
2023/05/22 09:57:51;;;;;;;15.77;13.93;;;;;;;27.55;50.10;101543.41;6249129;22;20470;-80
2023/05/22 10:00:19;;;;;;;15.23;13.52;;;;;;;27.73;50.73;101538.91;6250372;22;20359;-79
2023/05/22 10:02:48;;;;;;;15.80;14.27;;;;;;;27.73;49.13;101541.66;6251086;22;20075;-80
2023/05/22 10:05:20;;;;;;;14.05;12.70;;;;;;;27.86;48.39;101538.06;6249937;22;20016;-81
2023/05/22 10:07:50;;;;;;;14.18;12.82;;;;;;;27.86;47.74;101544.28;6250545;22;20021;-80
2023/05/22 10:10:20;;;;;;;12.00;10.95;;;;;;;27.87;46.62;101543.00;6247881;22;20442;-80
2023/05/22 10:12:56;;;;;;;15.70;11.07;;;;;;;27.86;46.60;101547.00;6251304;22;20027;-80
2023/05/22 10:15:22;;;;;;;13.57;12.25;;;;;;;27.73;45.79;101547.13;6250381;22;20056;-82
2023/05/22 10:17:49;;;;;;;12.70;11.45;;;;;;;27.89;46.54;101545.91;6250651;22;20048;-81
2023/05/22 10:20:16;;;;;;;13.70;12.13;;;;;;;27.78;44.56;101548.25;6273680;22;20095;-82
2023/05/22 10:22:43;;;;;;;12.10;11.07;;;;;;;27.72;46.20;101540.19;6250666;22;20020;-82
2023/05/22 10:25:10;;;;;;;12.70;11.45;;;;;;;28.12;47.80;101540.50;6248167;22;20031;-80
2023/05/22 10:27:38;;;;;;;14.10;12.40;;;;;;;28.38;46.73;101536.03;6248440;22;20017;-81
2023/05/22 10:30:23;;;;;;;15.02;13.40;;;;;;;28.60;45.66;101532.56;6250315;22;20017;-79
2023/05/22 10:33:18;;;;;;;14.77;12.77;;;;;;;28.81;44.74;101544.06;6126911;23;20026;-78
2023/05/22 10:35:51;;;;;;;13.02;11.73;;;;;;;28.86;44.93;101532.19;6126944;23;20596;-78
2023/05/22 10:38:36;;;;;;;13.57;12.25;;;;;;;28.87;45.61;101530.91;6127086;23;20022;-79
2023/05/22 10:41:03;;;;;;;13.55;12.02;;;;;;;28.98;43.12;101527.06;6127024;23;20433;-79
2023/05/22 10:43:31;;;;;;;12.40;11.23;;;;;;;28.94;43.41;101534.19;6127326;23;20022;-79
2023/05/22 10:46:05;;;;;;;11.93;10.80;;;;;;;28.96;43.82;101532.38;6127465;23;20098;-78
2023/05/22 10:48:39;;;;;;;11.73;10.73;;;;;;;29.02;42.09;101527.44;6102509;23;20018;-78
2023/05/22 10:51:07;;;;;;;11.73;10.40;;;;;;;28.94;44.36;101523.22;6127279;23;20019;-80
2023/05/22 10:53:35;;;;;;;14.40;12.18;;;;;;;28.88;43.42;101524.16;6127433;23;20023;-80
2023/05/22 10:56:10;;;;;;;13.95;11.15;;;;;;;29.05;43.96;101526.34;6127212;23;20097;-81
2023/05/22 10:58:37;;;;;;;14.18;12.68;;;;;;;29.08;43.49;101530.72;6127991;23;20044;-83
2023/05/22 11:01:09;;;;;;;13.75;12.35;;;;;;;29.14;44.13;101531.25;6127657;23;20019;-82
2023/05/22 11:03:54;;;;;;;12.27;11.18;;;;;;;29.12;44.09;101531.06;6126594;23;20444;-79
2023/05/22 11:06:37;;;;;;;11.63;10.52;;;;;;;28.99;43.32;101528.53;6127120;23;20066;-79
2023/05/22 11:09:25;;;;;;;12.15;10.95;;;;;;;29.01;43.87;101523.22;6127536;23;20049;-79
2023/05/22 11:12:20;;;;;;;11.88;10.85;;;;;;;29.23;43.54;101518.22;6250122;22;20017;-79
2023/05/22 11:14:48;;;;;;;10.70;9.80;;;;;;;29.46;43.31;101516.91;6250579;22;20481;-79
2023/05/22 11:17:28;;;;;;;14.13;11.23;;;;;;;29.26;41.30;101523.34;6249204;22;20023;-79
2023/05/22 11:20:00;;;;;;;12.20;11.02;;;;;;;29.02;41.88;101516.47;6250556;22;20012;-79